Accueil
METAR-TAF:

METAR-TAF

Aéroports :

Dortmund, Allemagne

Aéroport de Dortmund

latitude: 51-31N, longitude: 007-37E, altitude: 127 m

Observation

Le bulletin a été fait il y a 27 minutes, à 09:50 UTC
Vent 8 kt de sud-ouest, variant entre sud et ouest
Température 9°C
Humidité 53%
Pression 1013 hPa
Visibilité 10 km ou plus
Nuages fragmentés à une hauteur de 3600 ft

METAR: EDLW 280950Z 23008KT 190V270 9999 BKN036 09/00 Q1013

Heure: 12:17 (10:17 UTC)

Prévision

Le bulletin a été fait il y a 5 heures et 17 minutes, à 05:00 UTC
Prévision valable du 28 à 06 UTC au 29 à 06 UTC
Vent 7 kt de sud
Visibilité 10 km ou plus
Nuages épars à une hauteur de 3000 ft
Evoluant progressivement
du 28 à 08 UTC au 28 à 11 UTC
Vent 8 kt de ouest/sud-ouest

TAF: EDLW 280500Z 2806/2906 19007KT 9999 SCT030 BECMG 2808/2811 25008KT

Observations et prévisions météorologiques de plus de 4000 aéroports (messages METAR et TAF).

Les stations disponibles sont représentées par des disques jaunes et rouges sur la carte.

Passer la souris dessus pour voir le nom de la station.

Cliquer dessus pour voir les observations et prévisions météorologiques.

Pour changer de carte: cliquez sur les boutons verts avec une croix noire pour zoomer, sur le bouton vert avec un tiret pour effectuer un zoom arrière, ou sur les flèches vertes pour les cartes adjacentes.


METAR-TAF: